sensor_id;sensor_type;location;lat;lon;timestamp;temperature;humidity
6738;DHT22;3406;49.902;8.596;2022-07-03T00:01:46;20.30;53.50
6738;DHT22;3406;49.902;8.596;2022-07-03T00:04:13;20.20;53.60
6738;DHT22;3406;49.902;8.596;2022-07-03T00:06:39;20.20;53.70
6738;DHT22;3406;49.902;8.596;2022-07-03T00:09:06;20.10;53.80
6738;DHT22;3406;49.902;8.596;2022-07-03T00:11:34;20.10;54.00
6738;DHT22;3406;49.902;8.596;2022-07-03T00:14:00;20.00;54.00
6738;DHT22;3406;49.902;8.596;2022-07-03T00:16:28;20.00;54.10
6738;DHT22;3406;49.902;8.596;2022-07-03T00:18:54;19.90;54.10
6738;DHT22;3406;49.902;8.596;2022-07-03T00:21:25;20.00;54.20
6738;DHT22;3406;49.902;8.596;2022-07-03T00:23:56;19.90;54.30
6738;DHT22;3406;49.902;8.596;2022-07-03T00:26:25;19.80;54.30
6738;DHT22;3406;49.902;8.596;2022-07-03T00:28:57;19.80;54.40
6738;DHT22;3406;49.902;8.596;2022-07-03T00:31:25;19.70;54.60
6738;DHT22;3406;49.902;8.596;2022-07-03T00:33:57;19.60;54.80
6738;DHT22;3406;49.902;8.596;2022-07-03T00:36:26;19.50;55.30
6738;DHT22;3406;49.902;8.596;2022-07-03T00:38:53;19.40;55.70
6738;DHT22;3406;49.902;8.596;2022-07-03T00:41:27;19.30;55.90
6738;DHT22;3406;49.902;8.596;2022-07-03T00:43:56;19.20;56.10
6738;DHT22;3406;49.902;8.596;2022-07-03T00:46:25;19.20;56.30
6738;DHT22;3406;49.902;8.596;2022-07-03T00:48:54;19.10;56.50
6738;DHT22;3406;49.902;8.596;2022-07-03T00:51:23;19.00;56.80
6738;DHT22;3406;49.902;8.596;2022-07-03T00:53:52;18.90;56.90
6738;DHT22;3406;49.902;8.596;2022-07-03T00:56:24;18.90;57.00
6738;DHT22;3406;49.902;8.596;2022-07-03T00:58:53;18.80;57.10
6738;DHT22;3406;49.902;8.596;2022-07-03T01:01:22;18.80;57.80
6738;DHT22;3406;49.902;8.596;2022-07-03T01:04:01;18.70;57.30
6738;DHT22;3406;49.902;8.596;2022-07-03T01:06:33;18.70;57.40
6738;DHT22;3406;49.902;8.596;2022-07-03T01:09:03;18.70;57.50
6738;DHT22;3406;49.902;8.596;2022-07-03T01:11:37;18.70;57.70
6738;DHT22;3406;49.902;8.596;2022-07-03T01:14:14;18.60;57.70
6738;DHT22;3406;49.902;8.596;2022-07-03T01:16:51;18.60;57.80
6738;DHT22;3406;49.902;8.596;2022-07-03T01:19:34;18.60;58.00
6738;DHT22;3406;49.902;8.596;2022-07-03T01:22:13;18.50;58.00
6738;DHT22;3406;49.902;8.596;2022-07-03T01:25:01;18.60;58.10
6738;DHT22;3406;49.902;8.596;2022-07-03T01:27:34;18.60;58.20
6738;DHT22;3406;49.902;8.596;2022-07-03T01:30:04;18.50;58.20
6738;DHT22;3406;49.902;8.596;2022-07-03T01:32:33;18.50;58.30
6738;DHT22;3406;49.902;8.596;2022-07-03T01:35:05;18.50;58.40
6738;DHT22;3406;49.902;8.596;2022-07-03T01:37:34;18.50;58.60
6738;DHT22;3406;49.902;8.596;2022-07-03T01:40:03;18.40;58.70
6738;DHT22;3406;49.902;8.596;2022-07-03T01:42:32;18.40;58.80
6738;DHT22;3406;49.902;8.596;2022-07-03T01:45:00;18.30;58.90
6738;DHT22;3406;49.902;8.596;2022-07-03T01:47:27;18.30;59.00
6738;DHT22;3406;49.902;8.596;2022-07-03T01:49:55;18.20;59.10
6738;DHT22;3406;49.902;8.596;2022-07-03T01:52:22;18.20;59.20
6738;DHT22;3406;49.902;8.596;2022-07-03T01:54:49;18.10;59.30
6738;DHT22;3406;49.902;8.596;2022-07-03T01:57:16;18.10;59.40
6738;DHT22;3406;49.902;8.596;2022-07-03T01:59:44;18.00;59.50
6738;DHT22;3406;49.902;8.596;2022-07-03T02:02:20;18.00;59.80
6738;DHT22;3406;49.902;8.596;2022-07-03T02:04:57;17.90;59.80
6738;DHT22;3406;49.902;8.596;2022-07-03T02:07:33;17.90;60.00
6738;DHT22;3406;49.902;8.596;2022-07-03T02:10:04;17.90;60.10
6738;DHT22;3406;49.902;8.596;2022-07-03T02:12:36;17.80;60.10
6738;DHT22;3406;49.902;8.596;2022-07-03T02:15:06;17.80;60.20
6738;DHT22;3406;49.902;8.596;2022-07-03T02:17:36;17.80;60.30
6738;DHT22;3406;49.902;8.596;2022-07-03T02:20:05;17.80;60.40
6738;DHT22;3406;49.902;8.596;2022-07-03T02:22:34;17.80;60.40
6738;DHT22;3406;49.902;8.596;2022-07-03T02:25:03;17.90;60.60
6738;DHT22;3406;49.902;8.596;2022-07-03T02:27:38;17.90;60.70
6738;DHT22;3406;49.902;8.596;2022-07-03T02:30:11;17.90;60.80
6738;DHT22;3406;49.902;8.596;2022-07-03T02:32:40;17.90;60.90
6738;DHT22;3406;49.902;8.596;2022-07-03T02:35:11;17.90;61.00
6738;DHT22;3406;49.902;8.596;2022-07-03T02:37:41;17.90;61.10
6738;DHT22;3406;49.902;8.596;2022-07-03T02:40:20;17.80;61.10
6738;DHT22;3406;49.902;8.596;2022-07-03T02:42:58;17.80;61.50
6738;DHT22;3406;49.902;8.596;2022-07-03T02:45:38;17.80;61.60
6738;DHT22;3406;49.902;8.596;2022-07-03T02:48:13;17.80;61.70
6738;DHT22;3406;49.902;8.596;2022-07-03T02:50:46;17.70;61.60
6738;DHT22;3406;49.902;8.596;2022-07-03T02:53:22;17.70;61.80
6738;DHT22;3406;49.902;8.596;2022-07-03T02:55:50;17.70;61.90
6738;DHT22;3406;49.902;8.596;2022-07-03T02:58:44;17.70;62.10
6738;DHT22;3406;49.902;8.596;2022-07-03T03:01:28;17.60;62.20
6738;DHT22;3406;49.902;8.596;2022-07-03T03:04:07;17.50;62.30
6738;DHT22;3406;49.902;8.596;2022-07-03T03:06:36;17.50;62.40
6738;DHT22;3406;49.902;8.596;2022-07-03T03:09:04;17.50;62.60
6738;DHT22;3406;49.902;8.596;2022-07-03T03:11:42;17.50;62.70
6738;DHT22;3406;49.902;8.596;2022-07-03T03:14:11;17.40;63.60
6738;DHT22;3406;49.902;8.596;2022-07-03T03:16:46;17.40;63.00
6738;DHT22;3406;49.902;8.596;2022-07-03T03:19:13;17.30;63.10
6738;DHT22;3406;49.902;8.596;2022-07-03T03:21:45;17.30;63.30
6738;DHT22;3406;49.902;8.596;2022-07-03T03:24:14;17.30;63.50
6738;DHT22;3406;49.902;8.596;2022-07-03T03:26:41;17.20;63.70
6738;DHT22;3406;49.902;8.596;2022-07-03T03:29:07;17.20;63.90
6738;DHT22;3406;49.902;8.596;2022-07-03T03:31:34;17.20;64.00
6738;DHT22;3406;49.902;8.596;2022-07-03T03:34:03;17.20;64.10
6738;DHT22;3406;49.902;8.596;2022-07-03T03:36:30;17.20;64.20
6738;DHT22;3406;49.902;8.596;2022-07-03T03:38:58;17.20;64.30
6738;DHT22;3406;49.902;8.596;2022-07-03T03:41:25;17.20;64.30
6738;DHT22;3406;49.902;8.596;2022-07-03T03:43:52;17.20;64.50
6738;DHT22;3406;49.902;8.596;2022-07-03T03:46:18;17.20;64.50
6738;DHT22;3406;49.902;8.596;2022-07-03T03:48:47;17.20;64.60
6738;DHT22;3406;49.902;8.596;2022-07-03T03:51:15;17.20;64.60
6738;DHT22;3406;49.902;8.596;2022-07-03T03:53:42;17.20;64.60
6738;DHT22;3406;49.902;8.596;2022-07-03T03:56:10;17.20;64.70
6738;DHT22;3406;49.902;8.596;2022-07-03T03:58:39;17.20;64.80
6738;DHT22;3406;49.902;8.596;2022-07-03T04:01:07;17.30;64.90
6738;DHT22;3406;49.902;8.596;2022-07-03T04:03:34;17.20;64.90
6738;DHT22;3406;49.902;8.596;2022-07-03T04:06:01;17.30;65.10
6738;DHT22;3406;49.902;8.596;2022-07-03T04:08:30;17.20;65.10
6738;DHT22;3406;49.902;8.596;2022-07-03T04:10:57;17.20;65.10
6738;DHT22;3406;49.902;8.596;2022-07-03T04:13:24;17.20;65.20
6738;DHT22;3406;49.902;8.596;2022-07-03T04:15:52;17.20;65.30
6738;DHT22;3406;49.902;8.596;2022-07-03T04:18:19;17.20;65.40
6738;DHT22;3406;49.902;8.596;2022-07-03T04:20:46;17.30;65.50
6738;DHT22;3406;49.902;8.596;2022-07-03T04:23:12;17.30;65.60
6738;DHT22;3406;49.902;8.596;2022-07-03T04:25:40;17.30;65.60
6738;DHT22;3406;49.902;8.596;2022-07-03T04:28:07;17.40;65.80
6738;DHT22;3406;49.902;8.596;2022-07-03T04:30:34;17.40;65.80
6738;DHT22;3406;49.902;8.596;2022-07-03T04:33:00;17.40;65.80
6738;DHT22;3406;49.902;8.596;2022-07-03T04:35:27;17.50;65.90
6738;DHT22;3406;49.902;8.596;2022-07-03T04:37:54;17.50;65.90
6738;DHT22;3406;49.902;8.596;2022-07-03T04:40:21;17.50;65.80
6738;DHT22;3406;49.902;8.596;2022-07-03T04:42:49;17.60;65.90
6738;DHT22;3406;49.902;8.596;2022-07-03T04:45:15;17.60;65.90
6738;DHT22;3406;49.902;8.596;2022-07-03T04:47:42;17.60;66.00
6738;DHT22;3406;49.902;8.596;2022-07-03T04:50:09;17.60;66.00
6738;DHT22;3406;49.902;8.596;2022-07-03T04:52:35;17.70;66.10
6738;DHT22;3406;49.902;8.596;2022-07-03T04:55:02;17.70;66.00
6738;DHT22;3406;49.902;8.596;2022-07-03T04:57:29;17.80;66.10
6738;DHT22;3406;49.902;8.596;2022-07-03T04:59:57;17.90;66.10
6738;DHT22;3406;49.902;8.596;2022-07-03T05:02:24;17.90;66.00
6738;DHT22;3406;49.902;8.596;2022-07-03T05:04:50;18.00;66.10
6738;DHT22;3406;49.902;8.596;2022-07-03T05:07:17;18.10;66.20
6738;DHT22;3406;49.902;8.596;2022-07-03T05:09:44;18.20;66.20
6738;DHT22;3406;49.902;8.596;2022-07-03T05:12:10;18.20;66.10
6738;DHT22;3406;49.902;8.596;2022-07-03T05:14:37;18.40;66.20
6738;DHT22;3406;49.902;8.596;2022-07-03T05:17:05;18.40;66.00
6738;DHT22;3406;49.902;8.596;2022-07-03T05:19:31;18.60;66.00
6738;DHT22;3406;49.902;8.596;2022-07-03T05:21:58;18.80;66.00
6738;DHT22;3406;49.902;8.596;2022-07-03T05:24:25;18.90;65.80
6738;DHT22;3406;49.902;8.596;2022-07-03T05:26:51;19.10;65.70
6738;DHT22;3406;49.902;8.596;2022-07-03T05:29:18;19.20;65.70
6738;DHT22;3406;49.902;8.596;2022-07-03T05:31:45;19.30;65.60
6738;DHT22;3406;49.902;8.596;2022-07-03T05:34:13;19.40;65.50
6738;DHT22;3406;49.902;8.596;2022-07-03T05:36:40;19.60;65.50
6738;DHT22;3406;49.902;8.596;2022-07-03T05:39:06;19.80;65.30
6738;DHT22;3406;49.902;8.596;2022-07-03T05:41:50;19.90;65.20
6738;DHT22;3406;49.902;8.596;2022-07-03T05:44:17;20.00;65.10
6738;DHT22;3406;49.902;8.596;2022-07-03T05:46:44;20.20;65.10
6738;DHT22;3406;49.902;8.596;2022-07-03T05:49:10;20.30;65.00
6738;DHT22;3406;49.902;8.596;2022-07-03T05:51:38;20.50;64.90
6738;DHT22;3406;49.902;8.596;2022-07-03T05:54:05;20.70;64.60
6738;DHT22;3406;49.902;8.596;2022-07-03T05:56:31;20.80;64.30
6738;DHT22;3406;49.902;8.596;2022-07-03T05:58:58;21.00;64.20
6738;DHT22;3406;49.902;8.596;2022-07-03T06:01:25;21.10;64.20
6738;DHT22;3406;49.902;8.596;2022-07-03T06:03:51;21.20;64.00
6738;DHT22;3406;49.902;8.596;2022-07-03T06:06:18;21.30;63.80
6738;DHT22;3406;49.902;8.596;2022-07-03T06:08:46;21.50;63.70
6738;DHT22;3406;49.902;8.596;2022-07-03T06:11:13;21.70;63.40
6738;DHT22;3406;49.902;8.596;2022-07-03T06:13:39;21.80;63.20
6738;DHT22;3406;49.902;8.596;2022-07-03T06:16:06;21.90;62.90
6738;DHT22;3406;49.902;8.596;2022-07-03T06:18:32;22.00;62.70
6738;DHT22;3406;49.902;8.596;2022-07-03T06:20:59;22.10;62.40
6738;DHT22;3406;49.902;8.596;2022-07-03T06:23:26;22.20;62.00
6738;DHT22;3406;49.902;8.596;2022-07-03T06:25:54;22.40;61.80
6738;DHT22;3406;49.902;8.596;2022-07-03T06:28:20;22.50;61.50
6738;DHT22;3406;49.902;8.596;2022-07-03T06:30:47;22.60;61.00
6738;DHT22;3406;49.902;8.596;2022-07-03T06:33:14;22.70;60.50
6738;DHT22;3406;49.902;8.596;2022-07-03T06:35:40;22.80;60.30
6738;DHT22;3406;49.902;8.596;2022-07-03T06:38:07;23.00;60.00
6738;DHT22;3406;49.902;8.596;2022-07-03T06:40:33;23.20;59.80
6738;DHT22;3406;49.902;8.596;2022-07-03T06:43:01;23.30;59.50
6738;DHT22;3406;49.902;8.596;2022-07-03T06:45:28;23.40;59.20
6738;DHT22;3406;49.902;8.596;2022-07-03T06:47:54;23.50;58.90
6738;DHT22;3406;49.902;8.596;2022-07-03T06:50:21;23.70;58.60
6738;DHT22;3406;49.902;8.596;2022-07-03T06:52:48;23.70;58.20
6738;DHT22;3406;49.902;8.596;2022-07-03T06:55:14;23.90;58.20
6738;DHT22;3406;49.902;8.596;2022-07-03T06:57:41;24.00;57.80
6738;DHT22;3406;49.902;8.596;2022-07-03T07:00:10;24.10;57.60
6738;DHT22;3406;49.902;8.596;2022-07-03T07:02:37;24.30;57.30
6738;DHT22;3406;49.902;8.596;2022-07-03T07:05:05;24.40;57.10
6738;DHT22;3406;49.902;8.596;2022-07-03T07:07:32;24.50;56.70
6738;DHT22;3406;49.902;8.596;2022-07-03T07:09:58;24.60;56.40
6738;DHT22;3406;49.902;8.596;2022-07-03T07:12:25;24.70;56.10
6738;DHT22;3406;49.902;8.596;2022-07-03T07:14:52;24.80;56.00
6738;DHT22;3406;49.902;8.596;2022-07-03T07:17:20;24.90;56.00
6738;DHT22;3406;49.902;8.596;2022-07-03T07:19:46;25.00;55.70
6738;DHT22;3406;49.902;8.596;2022-07-03T07:22:13;25.10;55.50
6738;DHT22;3406;49.902;8.596;2022-07-03T07:24:39;25.30;55.20
6738;DHT22;3406;49.902;8.596;2022-07-03T07:27:06;25.40;54.80
6738;DHT22;3406;49.902;8.596;2022-07-03T07:29:33;25.40;54.40
6738;DHT22;3406;49.902;8.596;2022-07-03T07:31:59;25.50;54.10
6738;DHT22;3406;49.902;8.596;2022-07-03T07:34:27;25.50;53.80
6738;DHT22;3406;49.902;8.596;2022-07-03T07:36:54;25.50;53.70
6738;DHT22;3406;49.902;8.596;2022-07-03T07:39:20;25.60;53.60
6738;DHT22;3406;49.902;8.596;2022-07-03T07:41:47;25.60;53.20
6738;DHT22;3406;49.902;8.596;2022-07-03T07:44:14;25.50;52.90
6738;DHT22;3406;49.902;8.596;2022-07-03T07:46:40;25.40;52.90
6738;DHT22;3406;49.902;8.596;2022-07-03T07:49:07;25.40;53.00
6738;DHT22;3406;49.902;8.596;2022-07-03T07:51:35;25.60;52.80
6738;DHT22;3406;49.902;8.596;2022-07-03T07:54:01;25.70;52.80
6738;DHT22;3406;49.902;8.596;2022-07-03T07:56:28;25.90;52.60
6738;DHT22;3406;49.902;8.596;2022-07-03T07:58:55;25.90;52.00
6738;DHT22;3406;49.902;8.596;2022-07-03T08:01:21;25.90;51.70
6738;DHT22;3406;49.902;8.596;2022-07-03T08:04:05;26.00;51.70
6738;DHT22;3406;49.902;8.596;2022-07-03T08:06:51;26.10;51.90
6738;DHT22;3406;49.902;8.596;2022-07-03T08:09:17;26.30;51.70
6738;DHT22;3406;49.902;8.596;2022-07-03T08:11:44;26.50;51.50
6738;DHT22;3406;49.902;8.596;2022-07-03T08:14:11;26.60;51.00
6738;DHT22;3406;49.902;8.596;2022-07-03T08:16:37;26.70;50.80
6738;DHT22;3406;49.902;8.596;2022-07-03T08:19:06;26.70;50.70
6738;DHT22;3406;49.902;8.596;2022-07-03T08:21:33;26.90;50.60
6738;DHT22;3406;49.902;8.596;2022-07-03T08:24:01;26.80;49.80
6738;DHT22;3406;49.902;8.596;2022-07-03T08:26:27;26.80;49.50
6738;DHT22;3406;49.902;8.596;2022-07-03T08:28:54;26.80;49.50
6738;DHT22;3406;49.902;8.596;2022-07-03T08:31:20;26.80;49.20
6738;DHT22;3406;49.902;8.596;2022-07-03T08:33:47;26.90;49.10
6738;DHT22;3406;49.902;8.596;2022-07-03T08:36:14;27.00;49.00
6738;DHT22;3406;49.902;8.596;2022-07-03T08:38:40;27.10;48.60
6738;DHT22;3406;49.902;8.596;2022-07-03T08:41:09;27.10;48.30
6738;DHT22;3406;49.902;8.596;2022-07-03T08:43:38;27.10;48.40
6738;DHT22;3406;49.902;8.596;2022-07-03T08:46:06;27.10;48.40
6738;DHT22;3406;49.902;8.596;2022-07-03T08:48:34;27.10;49.00
6738;DHT22;3406;49.902;8.596;2022-07-03T08:51:01;27.20;48.40
6738;DHT22;3406;49.902;8.596;2022-07-03T08:53:28;27.30;48.30
6738;DHT22;3406;49.902;8.596;2022-07-03T08:55:55;27.40;48.20
6738;DHT22;3406;49.902;8.596;2022-07-03T08:58:23;27.40;48.20
6738;DHT22;3406;49.902;8.596;2022-07-03T09:00:50;27.50;48.20
6738;DHT22;3406;49.902;8.596;2022-07-03T09:03:19;27.60;47.70
6738;DHT22;3406;49.902;8.596;2022-07-03T09:05:47;27.60;47.30
6738;DHT22;3406;49.902;8.596;2022-07-03T09:08:15;27.60;47.20
6738;DHT22;3406;49.902;8.596;2022-07-03T09:10:44;27.60;46.90
6738;DHT22;3406;49.902;8.596;2022-07-03T09:13:11;27.70;46.70
6738;DHT22;3406;49.902;8.596;2022-07-03T09:15:39;27.80;46.60
6738;DHT22;3406;49.902;8.596;2022-07-03T09:18:07;27.80;46.40
6738;DHT22;3406;49.902;8.596;2022-07-03T09:20:37;27.80;46.30
6738;DHT22;3406;49.902;8.596;2022-07-03T09:23:14;27.90;46.30
6738;DHT22;3406;49.902;8.596;2022-07-03T09:25:51;28.00;46.10
6738;DHT22;3406;49.902;8.596;2022-07-03T09:28:20;28.00;46.00
6738;DHT22;3406;49.902;8.596;2022-07-03T09:30:58;28.10;45.80
6738;DHT22;3406;49.902;8.596;2022-07-03T09:33:25;28.20;45.60
6738;DHT22;3406;49.902;8.596;2022-07-03T09:35:53;28.40;45.40
6738;DHT22;3406;49.902;8.596;2022-07-03T09:38:20;28.50;44.30
6738;DHT22;3406;49.902;8.596;2022-07-03T09:40:49;28.40;44.30
6738;DHT22;3406;49.902;8.596;2022-07-03T09:43:22;28.40;44.30
6738;DHT22;3406;49.902;8.596;2022-07-03T09:45:50;28.50;44.10
6738;DHT22;3406;49.902;8.596;2022-07-03T09:48:27;28.60;44.10
6738;DHT22;3406;49.902;8.596;2022-07-03T09:51:17;28.60;43.90
6738;DHT22;3406;49.902;8.596;2022-07-03T09:53:54;28.70;43.90
6738;DHT22;3406;49.902;8.596;2022-07-03T09:56:22;28.80;43.40
6738;DHT22;3406;49.902;8.596;2022-07-03T09:59:00;28.80;43.50
6738;DHT22;3406;49.902;8.596;2022-07-03T10:01:27;28.90;43.40
6738;DHT22;3406;49.902;8.596;2022-07-03T10:04:08;29.00;43.00
6738;DHT22;3406;49.902;8.596;2022-07-03T10:06:48;29.00;43.00
6738;DHT22;3406;49.902;8.596;2022-07-03T10:09:16;29.00;42.90
6738;DHT22;3406;49.902;8.596;2022-07-03T10:11:43;29.10;42.90
6738;DHT22;3406;49.902;8.596;2022-07-03T10:14:13;29.20;43.00
6738;DHT22;3406;49.902;8.596;2022-07-03T10:16:40;29.30;43.00
6738;DHT22;3406;49.902;8.596;2022-07-03T10:19:12;29.30;42.90
6738;DHT22;3406;49.902;8.596;2022-07-03T10:21:43;29.40;42.90
6738;DHT22;3406;49.902;8.596;2022-07-03T10:24:11;29.40;42.70
6738;DHT22;3406;49.902;8.596;2022-07-03T10:26:39;29.40;42.20
6738;DHT22;3406;49.902;8.596;2022-07-03T10:29:09;29.50;42.20
6738;DHT22;3406;49.902;8.596;2022-07-03T10:31:42;29.60;41.90
6738;DHT22;3406;49.902;8.596;2022-07-03T10:34:11;29.70;41.30
6738;DHT22;3406;49.902;8.596;2022-07-03T10:36:39;29.70;41.30
6738;DHT22;3406;49.902;8.596;2022-07-03T10:39:06;29.80;41.20
6738;DHT22;3406;49.902;8.596;2022-07-03T10:41:35;29.90;40.90
6738;DHT22;3406;49.902;8.596;2022-07-03T10:44:21;30.10;40.50
6738;DHT22;3406;49.902;8.596;2022-07-03T10:47:05;30.10;39.70
6738;DHT22;3406;49.902;8.596;2022-07-03T10:49:33;30.20;40.10
6738;DHT22;3406;49.902;8.596;2022-07-03T10:52:01;30.30;40.00
6738;DHT22;3406;49.902;8.596;2022-07-03T10:54:29;30.40;39.80
6738;DHT22;3406;49.902;8.596;2022-07-03T10:57:15;30.60;39.90
6738;DHT22;3406;49.902;8.596;2022-07-03T11:00:15;30.70;39.80
6738;DHT22;3406;49.902;8.596;2022-07-03T11:02:45;30.70;39.70
6738;DHT22;3406;49.902;8.596;2022-07-03T11:05:24;30.80;39.50
6738;DHT22;3406;49.902;8.596;2022-07-03T11:08:05;30.80;39.60
6738;DHT22;3406;49.902;8.596;2022-07-03T11:10:34;30.90;39.20
6738;DHT22;3406;49.902;8.596;2022-07-03T11:13:03;30.90;39.20
6738;DHT22;3406;49.902;8.596;2022-07-03T11:15:31;31.00;39.20
6738;DHT22;3406;49.902;8.596;2022-07-03T11:18:12;31.00;39.10
6738;DHT22;3406;49.902;8.596;2022-07-03T11:23:48;31.10;38.60
6738;DHT22;3406;49.902;8.596;2022-07-03T11:26:22;31.00;38.20
6738;DHT22;3406;49.902;8.596;2022-07-03T11:28:51;31.00;38.10
6738;DHT22;3406;49.902;8.596;2022-07-03T11:31:18;30.90;37.70
6738;DHT22;3406;49.902;8.596;2022-07-03T11:33:48;30.90;37.40
6738;DHT22;3406;49.902;8.596;2022-07-03T11:36:25;31.10;37.30
6738;DHT22;3406;49.902;8.596;2022-07-03T11:39:03;31.40;36.50
6738;DHT22;3406;49.902;8.596;2022-07-03T11:41:40;31.60;35.90
6738;DHT22;3406;49.902;8.596;2022-07-03T11:44:09;31.60;35.20
6738;DHT22;3406;49.902;8.596;2022-07-03T11:46:37;31.40;35.10
6738;DHT22;3406;49.902;8.596;2022-07-03T11:49:04;31.30;35.40
6738;DHT22;3406;49.902;8.596;2022-07-03T11:51:33;31.40;35.50
6738;DHT22;3406;49.902;8.596;2022-07-03T11:54:00;31.40;35.20
6738;DHT22;3406;49.902;8.596;2022-07-03T11:56:27;31.30;35.40
6738;DHT22;3406;49.902;8.596;2022-07-03T11:58:55;31.20;35.10
6738;DHT22;3406;49.902;8.596;2022-07-03T12:01:30;31.20;34.30
6738;DHT22;3406;49.902;8.596;2022-07-03T12:04:08;31.20;33.80
6738;DHT22;3406;49.902;8.596;2022-07-03T12:06:37;31.20;33.60
6738;DHT22;3406;49.902;8.596;2022-07-03T12:09:15;31.20;33.70
6738;DHT22;3406;49.902;8.596;2022-07-03T12:11:52;31.20;33.70
6738;DHT22;3406;49.902;8.596;2022-07-03T12:14:40;31.30;33.80
6738;DHT22;3406;49.902;8.596;2022-07-03T12:17:08;31.40;33.80
6738;DHT22;3406;49.902;8.596;2022-07-03T12:19:35;31.50;33.60
6738;DHT22;3406;49.902;8.596;2022-07-03T12:22:05;31.50;33.30
6738;DHT22;3406;49.902;8.596;2022-07-03T12:24:32;31.50;33.30
6738;DHT22;3406;49.902;8.596;2022-07-03T12:27:02;31.50;33.00
6738;DHT22;3406;49.902;8.596;2022-07-03T12:29:29;31.60;33.00
6738;DHT22;3406;49.902;8.596;2022-07-03T12:31:56;31.70;33.10
6738;DHT22;3406;49.902;8.596;2022-07-03T12:34:23;31.80;33.10
6738;DHT22;3406;49.902;8.596;2022-07-03T12:37:00;32.00;32.80
6738;DHT22;3406;49.902;8.596;2022-07-03T12:39:42;32.10;32.70
6738;DHT22;3406;49.902;8.596;2022-07-03T12:42:19;32.10;32.60
6738;DHT22;3406;49.902;8.596;2022-07-03T12:44:57;32.20;32.70
6738;DHT22;3406;49.902;8.596;2022-07-03T12:47:25;32.40;32.60
6738;DHT22;3406;49.902;8.596;2022-07-03T12:49:56;32.40;32.20
6738;DHT22;3406;49.902;8.596;2022-07-03T12:52:23;32.50;32.60
6738;DHT22;3406;49.902;8.596;2022-07-03T12:54:51;32.60;32.30
6738;DHT22;3406;49.902;8.596;2022-07-03T12:57:18;32.60;32.20
6738;DHT22;3406;49.902;8.596;2022-07-03T13:00:04;32.40;32.00
6738;DHT22;3406;49.902;8.596;2022-07-03T13:02:33;32.40;32.00
6738;DHT22;3406;49.902;8.596;2022-07-03T13:05:00;32.40;32.10
6738;DHT22;3406;49.902;8.596;2022-07-03T13:07:28;32.40;32.10
6738;DHT22;3406;49.902;8.596;2022-07-03T13:09:59;32.40;31.90
6738;DHT22;3406;49.902;8.596;2022-07-03T13:12:26;32.40;32.20
6738;DHT22;3406;49.902;8.596;2022-07-03T13:14:57;32.40;32.10
6738;DHT22;3406;49.902;8.596;2022-07-03T13:17:24;32.30;32.20
6738;DHT22;3406;49.902;8.596;2022-07-03T13:20:10;32.40;32.30
6738;DHT22;3406;49.902;8.596;2022-07-03T13:22:36;32.40;32.10
6738;DHT22;3406;49.902;8.596;2022-07-03T13:25:05;32.30;32.00
6738;DHT22;3406;49.902;8.596;2022-07-03T13:27:31;32.40;32.10
6738;DHT22;3406;49.902;8.596;2022-07-03T13:29:58;32.40;32.00
6738;DHT22;3406;49.902;8.596;2022-07-03T13:32:25;32.30;31.80
6738;DHT22;3406;49.902;8.596;2022-07-03T13:34:51;32.40;31.60
6738;DHT22;3406;49.902;8.596;2022-07-03T13:37:18;32.40;31.60
6738;DHT22;3406;49.902;8.596;2022-07-03T13:39:44;32.40;31.80
6738;DHT22;3406;49.902;8.596;2022-07-03T13:42:12;32.50;31.60
6738;DHT22;3406;49.902;8.596;2022-07-03T13:44:39;32.50;31.50
6738;DHT22;3406;49.902;8.596;2022-07-03T13:47:06;32.50;31.50
6738;DHT22;3406;49.902;8.596;2022-07-03T13:49:33;32.60;31.50
6738;DHT22;3406;49.902;8.596;2022-07-03T13:51:59;32.70;31.20
6738;DHT22;3406;49.902;8.596;2022-07-03T13:54:26;32.70;31.20
6738;DHT22;3406;49.902;8.596;2022-07-03T13:56:53;32.80;31.20
6738;DHT22;3406;49.902;8.596;2022-07-03T13:59:21;32.80;31.10
6738;DHT22;3406;49.902;8.596;2022-07-03T14:01:47;33.00;30.90
6738;DHT22;3406;49.902;8.596;2022-07-03T14:04:14;32.80;30.80
6738;DHT22;3406;49.902;8.596;2022-07-03T14:06:41;32.50;31.00
6738;DHT22;3406;49.902;8.596;2022-07-03T14:09:07;32.40;31.10
6738;DHT22;3406;49.902;8.596;2022-07-03T14:11:34;32.40;30.80
6738;DHT22;3406;49.902;8.596;2022-07-03T14:14:01;32.40;31.00
6738;DHT22;3406;49.902;8.596;2022-07-03T14:16:29;32.50;31.00
6738;DHT22;3406;49.902;8.596;2022-07-03T14:18:55;32.60;30.80
6738;DHT22;3406;49.902;8.596;2022-07-03T14:21:22;32.60;30.50
6738;DHT22;3406;49.902;8.596;2022-07-03T14:23:48;32.50;30.20
6738;DHT22;3406;49.902;8.596;2022-07-03T14:26:15;32.20;30.40
6738;DHT22;3406;49.902;8.596;2022-07-03T14:29:02;32.10;30.70
6738;DHT22;3406;49.902;8.596;2022-07-03T14:31:47;32.10;30.60
6738;DHT22;3406;49.902;8.596;2022-07-03T14:34:31;32.30;31.10
6738;DHT22;3406;49.902;8.596;2022-07-03T14:36:58;32.40;30.40
6738;DHT22;3406;49.902;8.596;2022-07-03T14:39:25;32.50;30.30
6738;DHT22;3406;49.902;8.596;2022-07-03T14:41:51;32.60;30.20
6738;DHT22;3406;49.902;8.596;2022-07-03T14:44:18;32.70;30.00
6738;DHT22;3406;49.902;8.596;2022-07-03T14:46:51;32.70;30.00
6738;DHT22;3406;49.902;8.596;2022-07-03T14:49:17;32.50;30.00
6738;DHT22;3406;49.902;8.596;2022-07-03T14:51:44;32.20;30.20
6738;DHT22;3406;49.902;8.596;2022-07-03T14:54:16;32.20;30.50
6738;DHT22;3406;49.902;8.596;2022-07-03T14:56:47;32.40;30.50
6738;DHT22;3406;49.902;8.596;2022-07-03T14:59:13;32.70;30.00
6738;DHT22;3406;49.902;8.596;2022-07-03T15:01:45;32.70;29.60
6738;DHT22;3406;49.902;8.596;2022-07-03T15:04:21;32.80;29.70
6738;DHT22;3406;49.902;8.596;2022-07-03T15:06:51;32.90;29.60
6738;DHT22;3406;49.902;8.596;2022-07-03T15:09:25;33.00;29.60
6738;DHT22;3406;49.902;8.596;2022-07-03T15:11:55;33.10;29.70
6738;DHT22;3406;49.902;8.596;2022-07-03T15:14:43;33.20;29.60
6738;DHT22;3406;49.902;8.596;2022-07-03T15:17:10;33.10;29.00
6738;DHT22;3406;49.902;8.596;2022-07-03T15:19:40;32.80;29.00
6738;DHT22;3406;49.902;8.596;2022-07-03T15:22:09;32.50;29.40
6738;DHT22;3406;49.902;8.596;2022-07-03T15:24:40;32.30;29.60
6738;DHT22;3406;49.902;8.596;2022-07-03T15:27:07;32.30;29.70
6738;DHT22;3406;49.902;8.596;2022-07-03T15:29:35;32.50;29.80
6738;DHT22;3406;49.902;8.596;2022-07-03T15:32:03;32.70;29.70
6738;DHT22;3406;49.902;8.596;2022-07-03T15:34:31;32.80;29.60
6738;DHT22;3406;49.902;8.596;2022-07-03T15:37:07;32.60;29.30
6738;DHT22;3406;49.902;8.596;2022-07-03T15:39:42;32.60;28.90
6738;DHT22;3406;49.902;8.596;2022-07-03T15:42:22;32.70;28.80
6738;DHT22;3406;49.902;8.596;2022-07-03T15:44:55;32.90;28.70
6738;DHT22;3406;49.902;8.596;2022-07-03T15:47:36;33.10;28.30
6738;DHT22;3406;49.902;8.596;2022-07-03T15:50:08;33.20;28.10
6738;DHT22;3406;49.902;8.596;2022-07-03T15:52:46;33.20;28.00
6738;DHT22;3406;49.902;8.596;2022-07-03T15:55:14;33.00;27.90
6738;DHT22;3406;49.902;8.596;2022-07-03T15:57:47;32.90;28.20
6738;DHT22;3406;49.902;8.596;2022-07-03T16:00:16;32.80;28.40
6738;DHT22;3406;49.902;8.596;2022-07-03T16:03:00;32.90;28.50
6738;DHT22;3406;49.902;8.596;2022-07-03T16:05:31;33.00;28.70
6738;DHT22;3406;49.902;8.596;2022-07-03T16:08:02;33.20;29.00
6738;DHT22;3406;49.902;8.596;2022-07-03T16:10:31;33.40;29.10
6738;DHT22;3406;49.902;8.596;2022-07-03T16:12:58;33.50;29.10
6738;DHT22;3406;49.902;8.596;2022-07-03T16:15:29;33.60;29.00
6738;DHT22;3406;49.902;8.596;2022-07-03T16:17:56;33.60;28.90
6738;DHT22;3406;49.902;8.596;2022-07-03T16:20:25;33.70;29.00
6738;DHT22;3406;49.902;8.596;2022-07-03T16:22:55;33.80;28.70